This is the latest recevied weather packets stored in our database for station/object JH7MHZ-13. If no packets are shown the sender has not sent any weather packets the latest 10 day(s).
| Time | Temp. | Humidity | Pressure | Rain* | Wind** | Luminosity | Snow |
|---|---|---|---|---|---|---|---|
| 1788148744 | 25° C | 77% | 998.4 hPa | 0 mm | - | - | - |
| 1788145143 | 23.89° C | 79% | 998.4 hPa | 0 mm | - | - | - |
| 1788141542 | 23.33° C | 80% | 998.7 hPa | 0 mm | - | - | - |
| 1788137942 | 22.78° C | 82% | 998.7 hPa | 0 mm | - | - | - |
| 1788134341 | 21.67° C | 83% | 998.6 hPa | 0 mm | - | - | - |
| 1788130740 | 20.56° C | 85% | 998.2 hPa | 0 mm | - | - | - |
| 1788127140 | 20° C | 87% | 998.4 hPa | 0 mm | - | - | - |
| 1788123579 | 18.33° C | 93% | 997.8 hPa | 0 mm | - | - | - |
| 1788123539 | 18.33° C | 93% | 997.8 hPa | 0 mm | - | - | - |
| 1788119939 | 18.89° C | 90% | 997.3 hPa | 0 mm | - | - | - |
| 1788116443 | 18.89° C | 90% | 997 hPa | 0 mm | - | - | - |
| 1788116338 | 18.89° C | 90% | 997 hPa | 0 mm | - | - | - |
| 1788112808 | 18.89° C | 89% | 996.9 hPa | 0 mm | - | - | - |
| 1788112738 | 18.89° C | 89% | 996.9 hPa | 0 mm | - | - | - |
| 1788109137 | 18.89° C | 88% | 996.5 hPa | 0 mm | - | - | - |
| 1788105536 | 19.44° C | 86% | 996.3 hPa | 0 mm | - | - | - |
| 1788101936 | 19.44° C | 86% | 996.3 hPa | 0 mm | - | - | - |
| 1788098335 | 19.44° C | 86% | 996.3 hPa | 0 mm | - | - | - |
| 1788094735 | 19.44° C | 86% | 996.3 hPa | 0 mm | - | - | - |
| 1788091134 | 19.44° C | 86% | 996.3 hPa | 0 mm | - | - | - |
| 1788087534 | 19.44° C | 87% | 995.8 hPa | 0 mm | - | - | - |
| 1788083933 | 20° C | 88% | 995.1 hPa | 0 mm | - | - | - |
| 1788080333 | 20.56° C | 86% | 994.5 hPa | 0 mm | - | - | - |
| 1788076732 | 20.56° C | 87% | 994.2 hPa | 0 mm | - | - | - |
| 1788073131 | 21.11° C | 85% | 993.1 hPa | 0 mm | - | - | - |
* Rain latest hour (hover to see other rain measurements)
** Current wind speed in m/s (hover to see current wind gust speed)